Time,TemperatureF,DewpointF,PressureIn,WindDirection,WindDirectionDegrees,WindSpeedMPH,WindSpeedGustMPH,Humidity,HourlyPrecipIn,Conditions,Clouds,dailyrainin,SoftwareType,DateUTC
2014-01-24 00:13:00,8.8,2.8,30.24,West,270,0.0,-999.0,76,-99.99,,,0.00,Acu-Link.com,2014-01-24 05:13:00,
2014-01-24 00:28:00,7.7,2.0,30.24,West,270,0.0,-999.0,77,-99.99,,,0.00,Acu-Link.com,2014-01-24 05:28:00,
2014-01-24 00:44:00,7.5,1.5,30.23,West,270,1.7,-999.0,76,-99.99,,,0.00,Acu-Link.com,2014-01-24 05:44:00,
2014-01-24 00:59:00,8.1,1.6,30.23,West,270,1.7,-999.0,74,-99.99,,,0.00,Acu-Link.com,2014-01-24 05:59:00,
2014-01-24 01:14:00,8.4,1.0,30.24,West,270,2.7,-999.0,71,-99.99,,,0.00,Acu-Link.com,2014-01-24 06:14:00,
2014-01-24 01:29:00,7.5,0.4,30.24,West,270,0.0,-999.0,72,-99.99,,,0.00,Acu-Link.com,2014-01-24 06:29:00,
2014-01-24 01:45:00,7.5,0.7,30.24,West,270,0.0,-999.0,73,-99.99,,,0.00,Acu-Link.com,2014-01-24 06:45:00,
2014-01-24 02:00:00,8.1,0.4,30.24,West,270,0.0,-999.0,70,-99.99,,,0.00,Acu-Link.com,2014-01-24 07:00:00,
2014-01-24 02:15:00,7.9,-0.4,30.25,West,270,0.0,-999.0,68,-99.99,,,0.00,Acu-Link.com,2014-01-24 07:15:00,
2014-01-24 02:30:00,8.2,-1.1,30.25,West,270,2.2,-999.0,65,-99.99,,,0.00,Acu-Link.com,2014-01-24 07:30:00,
2014-01-24 02:46:00,9.0,-1.3,30.25,West,270,1.7,-999.0,62,-99.99,,,0.00,Acu-Link.com,2014-01-24 07:46:00,
2014-01-24 03:01:00,8.2,-1.4,30.25,West,270,0.0,-999.0,64,-99.99,,,0.00,Acu-Link.com,2014-01-24 08:01:00,
2014-01-24 03:16:00,7.3,-1.6,30.25,West,270,0.0,-999.0,66,-99.99,,,0.00,Acu-Link.com,2014-01-24 08:16:00,
2014-01-24 03:32:00,5.9,-1.7,30.25,West,270,0.0,-999.0,70,-99.99,,,0.00,Acu-Link.com,2014-01-24 08:32:00,
2014-01-24 03:47:00,4.8,-2.2,30.25,West,270,0.0,-999.0,72,-99.99,,,0.00,Acu-Link.com,2014-01-24 08:47:00,
2014-01-24 04:02:00,3.7,-3.0,30.25,West,270,0.0,-999.0,73,-99.99,,,0.00,Acu-Link.com,2014-01-24 09:02:00,
2014-01-24 04:17:00,3.2,-2.9,30.26,West,270,0.0,-999.0,75,-99.99,,,0.00,Acu-Link.com,2014-01-24 09:17:00,
2014-01-24 04:33:00,3.0,-2.8,30.25,West,270,0.0,-999.0,76,-99.99,,,0.00,Acu-Link.com,2014-01-24 09:33:00,
2014-01-24 04:48:00,3.2,-2.4,30.25,West,270,0.0,-999.0,77,-99.99,,,0.00,Acu-Link.com,2014-01-24 09:48:00,
2014-01-24 05:03:00,3.2,-3.2,30.26,West,270,0.0,-999.0,74,-99.99,,,0.00,Acu-Link.com,2014-01-24 10:03:00,
2014-01-24 05:19:00,2.8,-3.0,30.27,West,270,0.0,-999.0,76,-99.99,,,0.00,Acu-Link.com,2014-01-24 10:19:00,
2014-01-24 05:34:00,2.3,-3.5,30.27,West,270,0.0,-999.0,76,-99.99,,,0.00,Acu-Link.com,2014-01-24 10:34:00,
2014-01-24 05:49:00,2.3,-3.2,30.28,West,270,0.0,-999.0,77,-99.99,,,0.00,Acu-Link.com,2014-01-24 10:49:00,
2014-01-24 06:05:00,1.6,-3.9,30.28,West,270,0.0,-999.0,77,-99.99,,,0.00,Acu-Link.com,2014-01-24 11:05:00,
2014-01-24 06:20:00,3.9,-2.2,30.29,West,270,0.0,-999.0,75,-99.99,,,0.00,Acu-Link.com,2014-01-24 11:20:00,
2014-01-24 06:35:00,3.2,-2.6,30.29,West,270,0.0,-999.0,76,-99.99,,,0.00,Acu-Link.com,2014-01-24 11:35:00,
2014-01-24 06:50:00,2.5,-2.8,30.30,West,270,0.0,-999.0,78,-99.99,,,0.00,Acu-Link.com,2014-01-24 11:50:00,
2014-01-24 07:05:00,1.6,-3.6,30.30,West,270,0.0,-999.0,78,-99.99,,,0.00,Acu-Link.com,2014-01-24 12:05:00,
2014-01-24 07:21:00,1.4,-3.8,30.31,West,270,0.0,-999.0,78,-99.99,,,0.00,Acu-Link.com,2014-01-24 12:21:00,
2014-01-24 07:36:00,2.1,-2.6,30.31,West,270,0.0,-999.0,80,-99.99,,,0.00,Acu-Link.com,2014-01-24 12:36:00,
2014-01-24 07:51:00,3.0,-2.0,30.31,West,270,0.0,-999.0,79,-99.99,,,0.00,Acu-Link.com,2014-01-24 12:51:00,
2014-01-24 08:07:00,5.5,-0.7,30.32,West,270,2.7,-999.0,75,-99.99,,,0.00,Acu-Link.com,2014-01-24 13:07:00,
2014-01-24 08:22:00,6.3,-0.5,30.32,West,270,1.1,-999.0,73,-99.99,,,0.00,Acu-Link.com,2014-01-24 13:22:00,
2014-01-24 08:37:00,8.2,-1.1,30.32,West,270,1.1,-999.0,65,-99.99,,,0.00,Acu-Link.com,2014-01-24 13:37:00,
2014-01-24 08:52:00,10.0,-1.4,30.33,West,270,3.7,-999.0,59,-99.99,,,0.00,Acu-Link.com,2014-01-24 13:52:00,
2014-01-24 09:07:00,12.0,-0.3,30.32,West,270,3.2,-999.0,57,-99.99,,,0.00,Acu-Link.com,2014-01-24 14:07:00,
2014-01-24 09:22:00,13.1,-0.8,30.33,West,270,3.2,-999.0,53,-99.99,,,0.00,Acu-Link.com,2014-01-24 14:22:00,
2014-01-24 09:38:00,14.2,-0.6,30.33,West,270,5.3,-999.0,51,-99.99,,,0.00,Acu-Link.com,2014-01-24 14:38:00,
2014-01-24 09:53:00,14.9,-0.3,30.32,NW,315,5.8,-999.0,50,-99.99,,,0.00,Acu-Link.com,2014-01-24 14:53:00,
2014-01-24 10:08:00,15.6,-0.1,30.32,West,270,3.7,-999.0,49,-99.99,,,0.00,Acu-Link.com,2014-01-24 15:08:00,
2014-01-24 10:24:00,15.8,-0.4,30.32,NW,315,3.7,-999.0,48,-99.99,,,0.00,Acu-Link.com,2014-01-24 15:24:00,
2014-01-24 10:39:00,16.0,-0.2,30.31,West,270,5.3,-999.0,48,-99.99,,,0.00,Acu-Link.com,2014-01-24 15:39:00,
2014-01-24 10:54:00,16.7,0.0,30.31,West,270,3.7,-999.0,47,-99.99,,,0.00,Acu-Link.com,2014-01-24 15:54:00,
2014-01-24 11:09:00,17.6,0.8,30.31,West,270,1.7,-999.0,47,-99.99,,,0.00,Acu-Link.com,2014-01-24 16:09:00,
2014-01-24 11:24:00,17.6,-0.1,30.30,WSW,247,4.2,-999.0,45,-99.99,,,0.00,Acu-Link.com,2014-01-24 16:24:00,
2014-01-24 11:39:00,18.3,0.1,30.29,West,270,4.7,-999.0,44,-99.99,,,0.00,Acu-Link.com,2014-01-24 16:39:00,
2014-01-24 11:55:00,17.8,-0.4,30.29,WNW,292,7.3,-999.0,44,-99.99,,,0.00,Acu-Link.com,2014-01-24 16:55:00,
2014-01-24 12:10:00,18.5,0.3,30.27,West,270,3.7,-999.0,44,-99.99,,,0.00,Acu-Link.com,2014-01-24 17:10:00,
2014-01-24 12:25:00,18.7,-0.5,30.25,SW,225,3.2,-999.0,42,-99.99,,,0.00,Acu-Link.com,2014-01-24 17:25:00,
2014-01-24 12:40:00,19.0,0.7,30.25,West,270,2.7,-999.0,44,-99.99,,,0.00,Acu-Link.com,2014-01-24 17:40:00,
2014-01-24 12:55:00,19.2,0.4,30.25,West,270,3.2,-999.0,43,-99.99,,,0.00,Acu-Link.com,2014-01-24 17:55:00,
2014-01-24 13:11:00,19.6,0.8,30.23,SW,225,4.7,-999.0,43,-99.99,,,0.00,Acu-Link.com,2014-01-24 18:11:00,
2014-01-24 13:26:00,19.4,-0.9,30.22,WSW,247,4.2,-999.0,40,-99.99,,,0.00,Acu-Link.com,2014-01-24 18:26:00,
2014-01-24 13:41:00,19.9,0.0,30.22,SW,225,4.2,-999.0,41,-99.99,,,0.00,Acu-Link.com,2014-01-24 18:41:00,
2014-01-24 13:57:00,20.5,1.1,30.21,WSW,247,6.3,-999.0,42,-99.99,,,0.00,Acu-Link.com,2014-01-24 18:57:00,
2014-01-24 14:12:00,19.9,-0.5,30.20,West,270,4.2,-999.0,40,-99.99,,,0.00,Acu-Link.com,2014-01-24 19:12:00,
2014-01-24 14:27:00,20.3,-0.7,30.19,WNW,292,5.8,-999.0,39,-99.99,,,0.00,Acu-Link.com,2014-01-24 19:27:00,
2014-01-24 14:43:00,20.1,-0.3,30.18,South,180,1.7,-999.0,40,-99.99,,,0.00,Acu-Link.com,2014-01-24 19:43:00,
2014-01-24 14:58:00,20.7,-0.3,30.19,SW,225,4.7,-999.0,39,-99.99,,,0.00,Acu-Link.com,2014-01-24 19:58:00,
2014-01-24 15:13:00,19.9,0.0,30.18,West,270,2.2,-999.0,41,-99.99,,,0.00,Acu-Link.com,2014-01-24 20:13:00,
2014-01-24 15:28:00,20.1,-0.3,30.19,SW,225,3.2,-999.0,40,-99.99,,,0.00,Acu-Link.com,2014-01-24 20:28:00,
2014-01-24 15:43:00,18.9,-0.4,30.18,West,270,4.2,-999.0,42,-99.99,,,0.00,Acu-Link.com,2014-01-24 20:43:00,
2014-01-24 15:58:00,18.3,0.1,30.16,WSW,247,4.7,-999.0,44,-99.99,,,0.00,Acu-Link.com,2014-01-24 20:58:00,
2014-01-24 16:13:00,18.1,0.8,30.16,SW,225,3.7,-999.0,46,-99.99,,,0.00,Acu-Link.com,2014-01-24 21:13:00,
2014-01-24 16:29:00,17.8,1.5,30.16,WSW,247,1.1,-999.0,48,-99.99,,,0.00,Acu-Link.com,2014-01-24 21:29:00,
2014-01-24 16:44:00,17.2,1.4,30.16,WSW,247,4.2,-999.0,49,-99.99,,,0.00,Acu-Link.com,2014-01-24 21:44:00,
2014-01-24 16:59:00,16.7,1.3,30.15,South,180,3.2,-999.0,50,-99.99,,,0.00,Acu-Link.com,2014-01-24 21:59:00,
2014-01-24 17:14:00,16.2,1.7,30.15,WSW,247,3.7,-999.0,52,-99.99,,,0.00,Acu-Link.com,2014-01-24 22:14:00,
2014-01-24 17:29:00,15.8,1.3,30.15,SSE,157,0.0,-999.0,52,-99.99,,,0.00,Acu-Link.com,2014-01-24 22:29:00,
2014-01-24 17:45:00,15.6,2.0,30.16,WSW,247,0.0,-999.0,54,-99.99,,,0.00,Acu-Link.com,2014-01-24 22:45:00,
2014-01-24 18:00:00,15.3,2.1,30.16,WSW,247,2.7,-999.0,55,-99.99,,,0.00,Acu-Link.com,2014-01-24 23:00:00,
2014-01-24 18:15:00,15.1,1.9,30.16,SW,225,1.7,-999.0,55,-99.99,,,0.00,Acu-Link.com,2014-01-24 23:15:00,
2014-01-24 18:30:00,14.7,1.5,30.16,South,180,2.7,-999.0,55,-99.99,,,0.00,Acu-Link.com,2014-01-24 23:30:00,
2014-01-24 18:45:00,14.4,2.0,30.16,South,180,1.7,-999.0,57,-99.99,,,0.00,Acu-Link.com,2014-01-24 23:45:00,
2014-01-24 19:01:00,14.2,1.8,30.15,SSE,157,1.7,-999.0,57,-99.99,,,0.00,Acu-Link.com,2014-01-25 00:01:00,
2014-01-24 19:16:00,14.0,1.6,30.15,West,270,2.2,-999.0,57,-99.99,,,0.00,Acu-Link.com,2014-01-25 00:16:00,
2014-01-24 19:31:00,13.5,1.1,30.14,SSW,202,1.1,-999.0,57,-99.99,,,0.00,Acu-Link.com,2014-01-25 00:31:00,
2014-01-24 19:46:00,13.1,1.5,30.14,SSW,202,0.0,-999.0,59,-99.99,,,0.00,Acu-Link.com,2014-01-25 00:46:00,
2014-01-24 20:02:00,12.9,1.3,30.13,SSW,202,2.7,-999.0,59,-99.99,,,0.00,Acu-Link.com,2014-01-25 01:02:00,
2014-01-24 20:17:00,12.7,1.1,30.13,SSW,202,1.1,-999.0,59,-99.99,,,0.00,Acu-Link.com,2014-01-25 01:17:00,
2014-01-24 20:32:00,12.7,0.8,30.12,ESE,112,4.7,-999.0,58,-99.99,,,0.00,Acu-Link.com,2014-01-25 01:32:00,
2014-01-24 20:48:00,12.7,0.4,30.11,SSE,157,2.2,-999.0,57,-99.99,,,0.00,Acu-Link.com,2014-01-25 01:48:00,
2014-01-24 21:03:00,12.7,0.4,30.10,SSE,157,0.0,-999.0,57,-99.99,,,0.00,Acu-Link.com,2014-01-25 02:03:00,
2014-01-24 21:18:00,12.7,0.8,30.09,SSE,157,0.0,-999.0,58,-99.99,,,0.00,Acu-Link.com,2014-01-25 02:18:00,
2014-01-24 21:33:00,12.6,1.0,30.09,SSE,157,0.0,-999.0,59,-99.99,,,0.00,Acu-Link.com,2014-01-25 02:33:00,
2014-01-24 21:49:00,13.5,2.2,30.08,SSE,157,1.7,-999.0,60,-99.99,,,0.00,Acu-Link.com,2014-01-25 02:49:00,
2014-01-24 22:04:00,13.8,2.9,30.08,SSE,157,2.7,-999.0,61,-99.99,,,0.00,Acu-Link.com,2014-01-25 03:04:00,
2014-01-24 22:19:00,14.0,3.1,30.07,SSE,157,3.2,-999.0,61,-99.99,,,0.00,Acu-Link.com,2014-01-25 03:19:00,
2014-01-24 22:34:00,14.4,3.4,30.06,SSE,157,3.2,-999.0,61,-99.99,,,0.00,Acu-Link.com,2014-01-25 03:34:00,
2014-01-24 22:49:00,14.7,3.4,30.06,SE,135,2.7,-999.0,60,-99.99,,,0.00,Acu-Link.com,2014-01-25 03:49:00,
2014-01-24 23:05:00,14.7,3.4,30.05,SE,135,2.2,-999.0,60,-99.99,,,0.00,Acu-Link.com,2014-01-25 04:05:00,
2014-01-24 23:20:00,14.9,3.2,30.04,SE,135,3.7,-999.0,59,-99.99,,,0.00,Acu-Link.com,2014-01-25 04:20:00,
2014-01-24 23:35:00,15.1,3.4,30.04,NW,315,1.1,-999.0,59,-99.99,,,0.00,Acu-Link.com,2014-01-25 04:35:00,
2014-01-24 23:50:00,15.1,3.4,30.01,SSW,202,0.0,-999.0,59,-99.99,,,0.00,Acu-Link.com,2014-01-25 04:50:00,